sensor_id;sensor_type;location;lat;lon;timestamp;P1;durP1;ratioP1;P2;durP2;ratioP2
73266;SDS011;61495;53.400;7.608;2023-04-21T00:00:13;16.33;;;7.22;;
73266;SDS011;61495;53.400;7.608;2023-04-21T00:02:39;14.70;;;7.68;;
73266;SDS011;61495;53.400;7.608;2023-04-21T00:05:05;14.75;;;7.40;;
73266;SDS011;61495;53.400;7.608;2023-04-21T00:07:34;15.32;;;7.38;;
73266;SDS011;61495;53.400;7.608;2023-04-21T00:10:01;15.05;;;7.82;;
73266;SDS011;61495;53.400;7.608;2023-04-21T00:12:29;13.40;;;6.97;;
73266;SDS011;61495;53.400;7.608;2023-04-21T00:14:54;14.25;;;6.78;;
73266;SDS011;61495;53.400;7.608;2023-04-21T00:17:19;12.20;;;7.68;;
73266;SDS011;61495;53.400;7.608;2023-04-21T00:19:45;14.35;;;7.97;;
73266;SDS011;61495;53.400;7.608;2023-04-21T00:22:11;18.38;;;8.27;;
73266;SDS011;61495;53.400;7.608;2023-04-21T00:24:43;14.75;;;8.20;;
73266;SDS011;61495;53.400;7.608;2023-04-21T00:27:09;16.83;;;7.38;;
73266;SDS011;61495;53.400;7.608;2023-04-21T00:29:35;14.88;;;8.00;;
73266;SDS011;61495;53.400;7.608;2023-04-21T00:32:01;14.35;;;8.70;;
73266;SDS011;61495;53.400;7.608;2023-04-21T00:34:28;18.85;;;8.85;;
73266;SDS011;61495;53.400;7.608;2023-04-21T00:36:53;21.02;;;8.85;;
73266;SDS011;61495;53.400;7.608;2023-04-21T00:39:18;15.82;;;8.02;;
73266;SDS011;61495;53.400;7.608;2023-04-21T00:41:44;19.17;;;9.32;;
73266;SDS011;61495;53.400;7.608;2023-04-21T00:44:09;16.42;;;9.32;;
73266;SDS011;61495;53.400;7.608;2023-04-21T00:46:35;15.70;;;8.55;;
73266;SDS011;61495;53.400;7.608;2023-04-21T00:49:04;17.08;;;8.90;;
73266;SDS011;61495;53.400;7.608;2023-04-21T00:51:31;16.30;;;8.52;;
73266;SDS011;61495;53.400;7.608;2023-04-21T00:53:58;15.68;;;8.02;;
73266;SDS011;61495;53.400;7.608;2023-04-21T00:56:24;17.45;;;7.45;;
73266;SDS011;61495;53.400;7.608;2023-04-21T00:58:52;15.50;;;7.53;;
73266;SDS011;61495;53.400;7.608;2023-04-21T01:01:17;15.18;;;8.38;;
73266;SDS011;61495;53.400;7.608;2023-04-21T01:03:43;14.00;;;7.57;;
73266;SDS011;61495;53.400;7.608;2023-04-21T01:06:10;15.70;;;8.27;;
73266;SDS011;61495;53.400;7.608;2023-04-21T01:08:36;13.93;;;7.65;;
73266;SDS011;61495;53.400;7.608;2023-04-21T01:11:09;16.23;;;8.63;;
73266;SDS011;61495;53.400;7.608;2023-04-21T01:13:35;15.77;;;8.93;;
73266;SDS011;61495;53.400;7.608;2023-04-21T01:16:00;14.43;;;8.77;;
73266;SDS011;61495;53.400;7.608;2023-04-21T01:18:26;13.40;;;7.30;;
73266;SDS011;61495;53.400;7.608;2023-04-21T01:20:51;17.00;;;8.50;;
73266;SDS011;61495;53.400;7.608;2023-04-21T01:23:26;14.15;;;8.10;;
73266;SDS011;61495;53.400;7.608;2023-04-21T01:25:52;15.80;;;8.00;;
73266;SDS011;61495;53.400;7.608;2023-04-21T01:28:24;16.08;;;8.40;;
73266;SDS011;61495;53.400;7.608;2023-04-21T01:30:50;15.23;;;8.23;;
73266;SDS011;61495;53.400;7.608;2023-04-21T01:33:17;12.63;;;7.30;;
73266;SDS011;61495;53.400;7.608;2023-04-21T01:35:43;14.23;;;8.20;;
73266;SDS011;61495;53.400;7.608;2023-04-21T01:38:12;16.10;;;7.78;;
73266;SDS011;61495;53.400;7.608;2023-04-21T01:40:58;17.58;;;7.78;;
73266;SDS011;61495;53.400;7.608;2023-04-21T01:43:43;15.65;;;8.57;;
73266;SDS011;61495;53.400;7.608;2023-04-21T01:46:19;17.13;;;8.35;;
73266;SDS011;61495;53.400;7.608;2023-04-21T01:48:59;16.33;;;7.75;;
73266;SDS011;61495;53.400;7.608;2023-04-21T01:51:43;15.15;;;8.07;;
73266;SDS011;61495;53.400;7.608;2023-04-21T01:54:25;17.77;;;8.35;;
73266;SDS011;61495;53.400;7.608;2023-04-21T01:56:50;17.25;;;7.93;;
73266;SDS011;61495;53.400;7.608;2023-04-21T01:59:16;15.88;;;7.72;;
73266;SDS011;61495;53.400;7.608;2023-04-21T02:01:41;18.92;;;8.73;;
73266;SDS011;61495;53.400;7.608;2023-04-21T02:04:07;18.15;;;9.05;;
73266;SDS011;61495;53.400;7.608;2023-04-21T02:06:32;16.52;;;8.90;;
73266;SDS011;61495;53.400;7.608;2023-04-21T02:08:57;15.20;;;7.80;;
73266;SDS011;61495;53.400;7.608;2023-04-21T02:11:23;14.90;;;8.02;;
73266;SDS011;61495;53.400;7.608;2023-04-21T02:13:51;15.52;;;8.38;;
73266;SDS011;61495;53.400;7.608;2023-04-21T02:16:17;15.25;;;7.20;;
73266;SDS011;61495;53.400;7.608;2023-04-21T02:18:44;15.18;;;8.70;;
73266;SDS011;61495;53.400;7.608;2023-04-21T02:21:09;17.40;;;7.35;;
73266;SDS011;61495;53.400;7.608;2023-04-21T02:23:40;16.77;;;8.02;;
73266;SDS011;61495;53.400;7.608;2023-04-21T02:26:05;12.57;;;6.95;;
73266;SDS011;61495;53.400;7.608;2023-04-21T02:28:31;20.40;;;8.27;;
73266;SDS011;61495;53.400;7.608;2023-04-21T02:30:56;17.15;;;7.38;;
73266;SDS011;61495;53.400;7.608;2023-04-21T02:33:21;17.83;;;7.07;;
73266;SDS011;61495;53.400;7.608;2023-04-21T02:35:47;14.48;;;7.60;;
73266;SDS011;61495;53.400;7.608;2023-04-21T02:38:12;14.50;;;7.95;;
73266;SDS011;61495;53.400;7.608;2023-04-21T02:40:37;17.17;;;7.93;;
73266;SDS011;61495;53.400;7.608;2023-04-21T02:43:03;13.57;;;7.13;;
73266;SDS011;61495;53.400;7.608;2023-04-21T02:45:28;13.98;;;7.45;;
73266;SDS011;61495;53.400;7.608;2023-04-21T02:47:53;15.38;;;7.47;;
73266;SDS011;61495;53.400;7.608;2023-04-21T02:50:19;15.88;;;8.02;;
73266;SDS011;61495;53.400;7.608;2023-04-21T02:52:44;15.25;;;7.35;;
73266;SDS011;61495;53.400;7.608;2023-04-21T02:55:10;16.02;;;7.88;;
73266;SDS011;61495;53.400;7.608;2023-04-21T02:57:35;15.43;;;7.68;;
73266;SDS011;61495;53.400;7.608;2023-04-21T03:00:01;18.88;;;8.25;;
73266;SDS011;61495;53.400;7.608;2023-04-21T03:02:26;13.88;;;7.57;;
73266;SDS011;61495;53.400;7.608;2023-04-21T03:04:52;14.52;;;8.20;;
73266;SDS011;61495;53.400;7.608;2023-04-21T03:07:18;15.38;;;8.38;;
73266;SDS011;61495;53.400;7.608;2023-04-21T03:09:43;13.93;;;7.95;;
73266;SDS011;61495;53.400;7.608;2023-04-21T03:12:08;14.77;;;7.68;;
73266;SDS011;61495;53.400;7.608;2023-04-21T03:14:34;14.88;;;7.28;;
73266;SDS011;61495;53.400;7.608;2023-04-21T03:16:59;19.35;;;8.32;;
73266;SDS011;61495;53.400;7.608;2023-04-21T03:19:25;15.48;;;7.28;;
73266;SDS011;61495;53.400;7.608;2023-04-21T03:21:50;20.02;;;7.60;;
73266;SDS011;61495;53.400;7.608;2023-04-21T03:24:22;18.70;;;8.30;;
73266;SDS011;61495;53.400;7.608;2023-04-21T03:29:13;16.30;;;7.53;;
73266;SDS011;61495;53.400;7.608;2023-04-21T03:31:38;15.57;;;8.02;;
73266;SDS011;61495;53.400;7.608;2023-04-21T03:34:03;15.73;;;7.50;;
73266;SDS011;61495;53.400;7.608;2023-04-21T03:36:29;15.30;;;7.65;;
73266;SDS011;61495;53.400;7.608;2023-04-21T03:38:55;18.02;;;7.78;;
73266;SDS011;61495;53.400;7.608;2023-04-21T03:41:22;15.50;;;7.45;;
73266;SDS011;61495;53.400;7.608;2023-04-21T03:43:49;13.43;;;8.45;;
73266;SDS011;61495;53.400;7.608;2023-04-21T03:46:19;15.52;;;8.45;;
73266;SDS011;61495;53.400;7.608;2023-04-21T03:48:45;19.20;;;8.32;;
73266;SDS011;61495;53.400;7.608;2023-04-21T03:51:12;14.05;;;8.20;;
73266;SDS011;61495;53.400;7.608;2023-04-21T03:53:43;17.63;;;8.35;;
73266;SDS011;61495;53.400;7.608;2023-04-21T03:56:08;16.17;;;8.23;;
73266;SDS011;61495;53.400;7.608;2023-04-21T03:58:34;15.90;;;8.13;;
73266;SDS011;61495;53.400;7.608;2023-04-21T04:00:59;15.93;;;8.18;;
73266;SDS011;61495;53.400;7.608;2023-04-21T04:03:25;17.50;;;8.23;;
73266;SDS011;61495;53.400;7.608;2023-04-21T04:05:50;14.95;;;8.25;;
73266;SDS011;61495;53.400;7.608;2023-04-21T04:08:16;17.73;;;8.02;;
73266;SDS011;61495;53.400;7.608;2023-04-21T04:10:41;18.63;;;7.85;;
73266;SDS011;61495;53.400;7.608;2023-04-21T04:13:06;15.48;;;8.15;;
73266;SDS011;61495;53.400;7.608;2023-04-21T04:15:32;17.40;;;7.75;;
73266;SDS011;61495;53.400;7.608;2023-04-21T04:17:57;15.60;;;7.82;;
73266;SDS011;61495;53.400;7.608;2023-04-21T04:20:22;17.33;;;8.18;;
73266;SDS011;61495;53.400;7.608;2023-04-21T04:22:48;16.95;;;7.72;;
73266;SDS011;61495;53.400;7.608;2023-04-21T04:25:14;14.43;;;7.57;;
73266;SDS011;61495;53.400;7.608;2023-04-21T04:27:41;16.60;;;7.70;;
73266;SDS011;61495;53.400;7.608;2023-04-21T04:30:09;16.33;;;8.65;;
73266;SDS011;61495;53.400;7.608;2023-04-21T04:32:35;18.05;;;6.93;;
73266;SDS011;61495;53.400;7.608;2023-04-21T04:35:07;16.25;;;7.95;;
73266;SDS011;61495;53.400;7.608;2023-04-21T04:37:36;15.50;;;8.15;;
73266;SDS011;61495;53.400;7.608;2023-04-21T04:40:02;17.10;;;8.35;;
73266;SDS011;61495;53.400;7.608;2023-04-21T04:42:36;17.67;;;7.75;;
73266;SDS011;61495;53.400;7.608;2023-04-21T04:45:03;16.05;;;8.80;;
73266;SDS011;61495;53.400;7.608;2023-04-21T04:47:30;13.63;;;6.97;;
73266;SDS011;61495;53.400;7.608;2023-04-21T04:49:55;14.70;;;8.27;;
73266;SDS011;61495;53.400;7.608;2023-04-21T04:52:20;11.60;;;7.05;;
73266;SDS011;61495;53.400;7.608;2023-04-21T04:54:46;17.00;;;8.02;;
73266;SDS011;61495;53.400;7.608;2023-04-21T04:57:11;18.65;;;7.53;;
73266;SDS011;61495;53.400;7.608;2023-04-21T04:59:37;15.90;;;7.90;;
73266;SDS011;61495;53.400;7.608;2023-04-21T05:02:02;13.95;;;7.28;;
73266;SDS011;61495;53.400;7.608;2023-04-21T05:04:30;18.27;;;7.63;;
73266;SDS011;61495;53.400;7.608;2023-04-21T05:06:58;14.95;;;6.90;;
73266;SDS011;61495;53.400;7.608;2023-04-21T05:09:23;16.17;;;6.60;;
73266;SDS011;61495;53.400;7.608;2023-04-21T05:11:48;15.65;;;7.18;;
73266;SDS011;61495;53.400;7.608;2023-04-21T05:14:14;12.95;;;7.38;;
73266;SDS011;61495;53.400;7.608;2023-04-21T05:16:39;11.77;;;6.68;;
73266;SDS011;61495;53.400;7.608;2023-04-21T05:19:07;14.43;;;7.18;;
73266;SDS011;61495;53.400;7.608;2023-04-21T05:21:33;12.43;;;6.45;;
73266;SDS011;61495;53.400;7.608;2023-04-21T05:24:01;12.52;;;6.70;;
73266;SDS011;61495;53.400;7.608;2023-04-21T05:26:27;15.98;;;7.55;;
73266;SDS011;61495;53.400;7.608;2023-04-21T05:28:54;12.93;;;6.35;;
73266;SDS011;61495;53.400;7.608;2023-04-21T05:31:20;13.13;;;7.50;;
73266;SDS011;61495;53.400;7.608;2023-04-21T05:33:46;15.15;;;6.55;;
73266;SDS011;61495;53.400;7.608;2023-04-21T05:36:12;12.63;;;6.65;;
73266;SDS011;61495;53.400;7.608;2023-04-21T05:38:37;15.02;;;6.97;;
73266;SDS011;61495;53.400;7.608;2023-04-21T05:41:03;16.45;;;7.07;;
73266;SDS011;61495;53.400;7.608;2023-04-21T05:43:29;16.55;;;8.15;;
73266;SDS011;61495;53.400;7.608;2023-04-21T05:45:57;14.52;;;7.28;;
73266;SDS011;61495;53.400;7.608;2023-04-21T05:48:26;14.88;;;7.00;;
73266;SDS011;61495;53.400;7.608;2023-04-21T05:50:52;16.52;;;7.28;;
73266;SDS011;61495;53.400;7.608;2023-04-21T05:53:18;13.70;;;6.95;;
73266;SDS011;61495;53.400;7.608;2023-04-21T05:55:43;15.73;;;7.40;;
73266;SDS011;61495;53.400;7.608;2023-04-21T05:58:09;12.38;;;6.70;;
73266;SDS011;61495;53.400;7.608;2023-04-21T06:00:34;13.50;;;7.00;;
73266;SDS011;61495;53.400;7.608;2023-04-21T06:03:00;15.45;;;7.78;;
73266;SDS011;61495;53.400;7.608;2023-04-21T06:05:25;16.52;;;6.97;;
73266;SDS011;61495;53.400;7.608;2023-04-21T06:07:51;13.93;;;6.95;;
73266;SDS011;61495;53.400;7.608;2023-04-21T06:10:16;15.77;;;6.50;;
73266;SDS011;61495;53.400;7.608;2023-04-21T06:12:42;11.82;;;7.25;;
73266;SDS011;61495;53.400;7.608;2023-04-21T06:15:07;15.13;;;6.57;;
73266;SDS011;61495;53.400;7.608;2023-04-21T06:17:33;12.68;;;6.40;;
73266;SDS011;61495;53.400;7.608;2023-04-21T06:19:58;12.85;;;7.53;;
73266;SDS011;61495;53.400;7.608;2023-04-21T06:22:24;11.40;;;6.43;;
73266;SDS011;61495;53.400;7.608;2023-04-21T06:24:53;13.70;;;6.28;;
73266;SDS011;61495;53.400;7.608;2023-04-21T06:27:18;14.32;;;6.65;;
73266;SDS011;61495;53.400;7.608;2023-04-21T06:29:43;12.18;;;5.97;;
73266;SDS011;61495;53.400;7.608;2023-04-21T06:32:11;13.32;;;5.97;;
73266;SDS011;61495;53.400;7.608;2023-04-21T06:34:37;12.25;;;7.10;;
73266;SDS011;61495;53.400;7.608;2023-04-21T06:37:03;9.95;;;5.95;;
73266;SDS011;61495;53.400;7.608;2023-04-21T06:39:28;16.33;;;6.65;;
73266;SDS011;61495;53.400;7.608;2023-04-21T06:41:54;15.45;;;6.00;;
73266;SDS011;61495;53.400;7.608;2023-04-21T06:44:19;14.25;;;6.22;;
73266;SDS011;61495;53.400;7.608;2023-04-21T06:46:45;11.68;;;5.80;;
73266;SDS011;61495;53.400;7.608;2023-04-21T06:49:11;13.90;;;6.85;;
73266;SDS011;61495;53.400;7.608;2023-04-21T06:51:36;12.43;;;6.18;;
73266;SDS011;61495;53.400;7.608;2023-04-21T06:54:05;11.20;;;6.45;;
73266;SDS011;61495;53.400;7.608;2023-04-21T06:56:31;13.52;;;6.03;;
73266;SDS011;61495;53.400;7.608;2023-04-21T06:58:56;14.70;;;5.82;;
73266;SDS011;61495;53.400;7.608;2023-04-21T07:01:22;10.68;;;5.78;;
73266;SDS011;61495;53.400;7.608;2023-04-21T07:03:50;13.65;;;7.00;;
73266;SDS011;61495;53.400;7.608;2023-04-21T07:06:16;12.77;;;6.13;;
73266;SDS011;61495;53.400;7.608;2023-04-21T07:08:41;11.20;;;6.05;;
73266;SDS011;61495;53.400;7.608;2023-04-21T07:11:06;13.07;;;6.30;;
73266;SDS011;61495;53.400;7.608;2023-04-21T07:13:32;12.98;;;6.07;;
73266;SDS011;61495;53.400;7.608;2023-04-21T07:15:57;11.00;;;6.90;;
73266;SDS011;61495;53.400;7.608;2023-04-21T07:18:23;10.80;;;6.72;;
73266;SDS011;61495;53.400;7.608;2023-04-21T07:20:48;10.60;;;4.93;;
73266;SDS011;61495;53.400;7.608;2023-04-21T07:23:14;11.63;;;7.28;;
73266;SDS011;61495;53.400;7.608;2023-04-21T07:25:39;11.48;;;5.85;;
73266;SDS011;61495;53.400;7.608;2023-04-21T07:28:05;13.35;;;5.68;;
73266;SDS011;61495;53.400;7.608;2023-04-21T07:30:30;11.30;;;5.65;;
73266;SDS011;61495;53.400;7.608;2023-04-21T07:32:56;18.10;;;6.93;;
73266;SDS011;61495;53.400;7.608;2023-04-21T07:35:22;13.73;;;6.22;;
73266;SDS011;61495;53.400;7.608;2023-04-21T07:37:48;13.52;;;6.60;;
73266;SDS011;61495;53.400;7.608;2023-04-21T07:40:13;10.35;;;5.35;;
73266;SDS011;61495;53.400;7.608;2023-04-21T07:42:39;11.93;;;5.07;;
73266;SDS011;61495;53.400;7.608;2023-04-21T07:45:04;10.38;;;5.93;;
73266;SDS011;61495;53.400;7.608;2023-04-21T07:47:31;10.88;;;6.18;;
73266;SDS011;61495;53.400;7.608;2023-04-21T07:49:57;10.95;;;6.68;;
73266;SDS011;61495;53.400;7.608;2023-04-21T07:52:22;15.35;;;6.22;;
73266;SDS011;61495;53.400;7.608;2023-04-21T07:54:51;10.05;;;5.80;;
73266;SDS011;61495;53.400;7.608;2023-04-21T07:57:16;11.10;;;5.32;;
73266;SDS011;61495;53.400;7.608;2023-04-21T07:59:42;12.00;;;5.55;;
73266;SDS011;61495;53.400;7.608;2023-04-21T08:02:07;12.40;;;5.32;;
73266;SDS011;61495;53.400;7.608;2023-04-21T08:04:33;9.43;;;6.00;;
73266;SDS011;61495;53.400;7.608;2023-04-21T08:06:58;9.98;;;5.20;;
73266;SDS011;61495;53.400;7.608;2023-04-21T08:09:24;12.50;;;5.78;;
73266;SDS011;61495;53.400;7.608;2023-04-21T08:11:50;14.70;;;4.85;;
73266;SDS011;61495;53.400;7.608;2023-04-21T08:14:15;15.50;;;5.40;;
73266;SDS011;61495;53.400;7.608;2023-04-21T08:16:41;13.20;;;6.07;;
73266;SDS011;61495;53.400;7.608;2023-04-21T08:19:07;11.70;;;5.32;;
73266;SDS011;61495;53.400;7.608;2023-04-21T08:21:33;9.32;;;5.38;;
73266;SDS011;61495;53.400;7.608;2023-04-21T08:23:59;10.88;;;5.65;;
73266;SDS011;61495;53.400;7.608;2023-04-21T08:26:25;11.73;;;5.10;;
73266;SDS011;61495;53.400;7.608;2023-04-21T08:28:50;11.77;;;5.85;;
73266;SDS011;61495;53.400;7.608;2023-04-21T08:31:19;11.85;;;5.82;;
73266;SDS011;61495;53.400;7.608;2023-04-21T08:33:45;14.55;;;6.53;;
73266;SDS011;61495;53.400;7.608;2023-04-21T08:36:10;11.27;;;5.30;;
73266;SDS011;61495;53.400;7.608;2023-04-21T08:38:36;11.48;;;6.28;;
73266;SDS011;61495;53.400;7.608;2023-04-21T08:41:02;11.20;;;5.40;;
73266;SDS011;61495;53.400;7.608;2023-04-21T08:43:27;10.25;;;6.22;;
73266;SDS011;61495;53.400;7.608;2023-04-21T08:45:53;12.52;;;6.38;;
73266;SDS011;61495;53.400;7.608;2023-04-21T08:48:22;9.73;;;5.40;;
73266;SDS011;61495;53.400;7.608;2023-04-21T08:50:50;10.75;;;6.13;;
73266;SDS011;61495;53.400;7.608;2023-04-21T08:53:16;11.75;;;6.28;;
73266;SDS011;61495;53.400;7.608;2023-04-21T08:55:42;12.40;;;6.15;;
73266;SDS011;61495;53.400;7.608;2023-04-21T08:58:08;10.90;;;7.13;;
73266;SDS011;61495;53.400;7.608;2023-04-21T09:00:36;10.07;;;5.68;;
73266;SDS011;61495;53.400;7.608;2023-04-21T09:03:03;12.45;;;6.20;;
73266;SDS011;61495;53.400;7.608;2023-04-21T09:05:32;13.90;;;6.05;;
73266;SDS011;61495;53.400;7.608;2023-04-21T09:08:08;11.60;;;6.35;;
73266;SDS011;61495;53.400;7.608;2023-04-21T09:10:41;11.70;;;5.68;;
73266;SDS011;61495;53.400;7.608;2023-04-21T09:13:11;9.57;;;6.13;;
73266;SDS011;61495;53.400;7.608;2023-04-21T09:15:40;13.32;;;6.70;;
73266;SDS011;61495;53.400;7.608;2023-04-21T09:18:17;10.63;;;6.50;;
73266;SDS011;61495;53.400;7.608;2023-04-21T09:20:44;12.63;;;6.30;;
73266;SDS011;61495;53.400;7.608;2023-04-21T09:23:11;14.02;;;7.22;;
73266;SDS011;61495;53.400;7.608;2023-04-21T09:25:37;9.88;;;6.20;;
73266;SDS011;61495;53.400;7.608;2023-04-21T09:28:07;8.95;;;6.45;;
73266;SDS011;61495;53.400;7.608;2023-04-21T09:30:34;14.07;;;6.28;;
73266;SDS011;61495;53.400;7.608;2023-04-21T09:33:00;9.98;;;6.07;;
73266;SDS011;61495;53.400;7.608;2023-04-21T09:35:31;13.23;;;6.85;;
73266;SDS011;61495;53.400;7.608;2023-04-21T09:37:57;11.05;;;6.75;;
73266;SDS011;61495;53.400;7.608;2023-04-21T09:40:24;11.35;;;6.20;;
73266;SDS011;61495;53.400;7.608;2023-04-21T09:42:50;10.50;;;6.45;;
73266;SDS011;61495;53.400;7.608;2023-04-21T09:45:15;10.10;;;6.30;;
73266;SDS011;61495;53.400;7.608;2023-04-21T09:47:41;14.27;;;6.47;;
73266;SDS011;61495;53.400;7.608;2023-04-21T09:50:08;10.60;;;6.38;;
73266;SDS011;61495;53.400;7.608;2023-04-21T09:52:36;13.88;;;6.22;;
73266;SDS011;61495;53.400;7.608;2023-04-21T09:55:03;14.05;;;6.45;;
73266;SDS011;61495;53.400;7.608;2023-04-21T09:57:38;10.43;;;6.70;;
73266;SDS011;61495;53.400;7.608;2023-04-21T10:00:06;13.35;;;6.93;;
73266;SDS011;61495;53.400;7.608;2023-04-21T10:02:33;16.90;;;6.90;;
73266;SDS011;61495;53.400;7.608;2023-04-21T10:05:02;12.77;;;6.75;;
73266;SDS011;61495;53.400;7.608;2023-04-21T10:07:29;9.95;;;6.40;;
73266;SDS011;61495;53.400;7.608;2023-04-21T10:09:55;12.63;;;6.55;;
73266;SDS011;61495;53.400;7.608;2023-04-21T10:12:23;10.40;;;7.03;;
73266;SDS011;61495;53.400;7.608;2023-04-21T10:14:53;11.93;;;7.22;;
73266;SDS011;61495;53.400;7.608;2023-04-21T10:17:23;11.35;;;7.00;;
73266;SDS011;61495;53.400;7.608;2023-04-21T10:19:51;11.98;;;6.82;;
73266;SDS011;61495;53.400;7.608;2023-04-21T10:22:31;8.50;;;6.45;;
73266;SDS011;61495;53.400;7.608;2023-04-21T10:25:01;8.82;;;6.35;;
73266;SDS011;61495;53.400;7.608;2023-04-21T10:30:00;12.07;;;6.72;;
73266;SDS011;61495;53.400;7.608;2023-04-21T10:35:09;11.05;;;6.00;;
73266;SDS011;61495;53.400;7.608;2023-04-21T10:37:46;12.40;;;7.05;;
73266;SDS011;61495;53.400;7.608;2023-04-21T10:46:45;13.43;;;7.70;;
73266;SDS011;61495;53.400;7.608;2023-04-21T10:49:07;11.07;;;7.10;;
73266;SDS011;61495;53.400;7.608;2023-04-21T10:54:25;9.95;;;7.40;;
73266;SDS011;61495;53.400;7.608;2023-04-21T10:56:55;12.25;;;7.80;;
73266;SDS011;61495;53.400;7.608;2023-04-21T10:59:21;11.02;;;7.57;;
73266;SDS011;61495;53.400;7.608;2023-04-21T11:01:47;10.80;;;6.82;;
73266;SDS011;61495;53.400;7.608;2023-04-21T11:04:17;10.98;;;6.65;;
73266;SDS011;61495;53.400;7.608;2023-04-21T11:09:31;9.32;;;6.90;;
73266;SDS011;61495;53.400;7.608;2023-04-21T11:11:58;12.55;;;6.65;;
73266;SDS011;61495;53.400;7.608;2023-04-21T11:14:26;9.88;;;7.38;;
73266;SDS011;61495;53.400;7.608;2023-04-21T11:16:52;13.50;;;7.65;;
73266;SDS011;61495;53.400;7.608;2023-04-21T11:19:17;10.82;;;6.90;;
73266;SDS011;61495;53.400;7.608;2023-04-21T11:21:47;10.40;;;7.35;;
73266;SDS011;61495;53.400;7.608;2023-04-21T11:24:12;11.15;;;6.40;;
73266;SDS011;61495;53.400;7.608;2023-04-21T11:26:38;14.35;;;6.93;;
73266;SDS011;61495;53.400;7.608;2023-04-21T11:29:04;10.70;;;5.57;;
73266;SDS011;61495;53.400;7.608;2023-04-21T11:31:31;8.95;;;5.15;;
73266;SDS011;61495;53.400;7.608;2023-04-21T11:34:00;8.65;;;5.00;;
73266;SDS011;61495;53.400;7.608;2023-04-21T11:36:26;9.15;;;5.65;;
73266;SDS011;61495;53.400;7.608;2023-04-21T11:38:52;10.70;;;5.75;;
73266;SDS011;61495;53.400;7.608;2023-04-21T11:41:23;11.02;;;5.90;;
73266;SDS011;61495;53.400;7.608;2023-04-21T11:43:50;14.88;;;6.47;;
73266;SDS011;61495;53.400;7.608;2023-04-21T11:46:26;11.70;;;5.47;;
73266;SDS011;61495;53.400;7.608;2023-04-21T11:49:02;7.53;;;5.65;;
73266;SDS011;61495;53.400;7.608;2023-04-21T11:51:35;9.30;;;4.70;;
73266;SDS011;61495;53.400;7.608;2023-04-21T11:54:16;8.30;;;5.10;;
73266;SDS011;61495;53.400;7.608;2023-04-21T11:56:45;9.32;;;4.85;;
73266;SDS011;61495;53.400;7.608;2023-04-21T11:59:15;9.07;;;4.65;;
73266;SDS011;61495;53.400;7.608;2023-04-21T12:01:47;8.43;;;5.32;;
73266;SDS011;61495;53.400;7.608;2023-04-21T12:04:18;11.43;;;6.45;;
73266;SDS011;61495;53.400;7.608;2023-04-21T12:06:45;7.88;;;5.00;;
73266;SDS011;61495;53.400;7.608;2023-04-21T12:09:19;7.55;;;4.88;;
73266;SDS011;61495;53.400;7.608;2023-04-21T12:11:49;7.07;;;4.47;;
73266;SDS011;61495;53.400;7.608;2023-04-21T12:14:17;11.68;;;5.80;;
73266;SDS011;61495;53.400;7.608;2023-04-21T12:16:47;9.27;;;5.28;;
73266;SDS011;61495;53.400;7.608;2023-04-21T12:19:20;9.32;;;5.50;;
73266;SDS011;61495;53.400;7.608;2023-04-21T12:21:51;7.82;;;5.28;;
73266;SDS011;61495;53.400;7.608;2023-04-21T12:24:23;7.85;;;5.40;;
73266;SDS011;61495;53.400;7.608;2023-04-21T12:26:49;9.73;;;5.07;;
73266;SDS011;61495;53.400;7.608;2023-04-21T12:29:15;7.97;;;5.00;;
73266;SDS011;61495;53.400;7.608;2023-04-21T12:31:40;10.95;;;5.88;;
73266;SDS011;61495;53.400;7.608;2023-04-21T12:34:05;8.43;;;5.32;;
73266;SDS011;61495;53.400;7.608;2023-04-21T12:36:31;8.23;;;5.68;;
73266;SDS011;61495;53.400;7.608;2023-04-21T12:38:56;9.73;;;5.45;;
73266;SDS011;61495;53.400;7.608;2023-04-21T12:41:22;8.23;;;5.80;;
73266;SDS011;61495;53.400;7.608;2023-04-21T12:43:48;9.48;;;5.60;;
73266;SDS011;61495;53.400;7.608;2023-04-21T12:46:13;11.27;;;5.47;;
73266;SDS011;61495;53.400;7.608;2023-04-21T12:48:39;8.63;;;6.05;;
73266;SDS011;61495;53.400;7.608;2023-04-21T12:51:05;7.97;;;5.65;;
73266;SDS011;61495;53.400;7.608;2023-04-21T12:53:30;7.93;;;5.15;;
73266;SDS011;61495;53.400;7.608;2023-04-21T12:55:56;11.60;;;5.78;;
73266;SDS011;61495;53.400;7.608;2023-04-21T12:58:21;8.98;;;5.80;;
73266;SDS011;61495;53.400;7.608;2023-04-21T13:00:47;9.70;;;6.03;;
73266;SDS011;61495;53.400;7.608;2023-04-21T13:03:12;7.90;;;5.18;;
73266;SDS011;61495;53.400;7.608;2023-04-21T13:05:38;7.22;;;5.63;;
73266;SDS011;61495;53.400;7.608;2023-04-21T13:08:03;9.05;;;5.15;;
73266;SDS011;61495;53.400;7.608;2023-04-21T13:10:29;9.75;;;5.65;;
73266;SDS011;61495;53.400;7.608;2023-04-21T13:12:54;7.22;;;5.22;;
73266;SDS011;61495;53.400;7.608;2023-04-21T13:15:19;11.65;;;5.78;;
73266;SDS011;61495;53.400;7.608;2023-04-21T13:17:45;8.95;;;5.38;;
73266;SDS011;61495;53.400;7.608;2023-04-21T13:20:11;10.48;;;5.32;;
73266;SDS011;61495;53.400;7.608;2023-04-21T13:22:36;7.20;;;5.25;;
73266;SDS011;61495;53.400;7.608;2023-04-21T13:25:11;10.27;;;5.32;;
73266;SDS011;61495;53.400;7.608;2023-04-21T13:27:36;8.38;;;5.13;;
73266;SDS011;61495;53.400;7.608;2023-04-21T13:30:07;7.93;;;5.82;;
73266;SDS011;61495;53.400;7.608;2023-04-21T13:32:34;10.30;;;5.53;;
73266;SDS011;61495;53.400;7.608;2023-04-21T13:35:00;10.90;;;5.13;;
73266;SDS011;61495;53.400;7.608;2023-04-21T13:37:29;8.27;;;5.25;;
73266;SDS011;61495;53.400;7.608;2023-04-21T13:39:54;8.27;;;5.20;;
73266;SDS011;61495;53.400;7.608;2023-04-21T13:42:20;9.77;;;6.05;;
73266;SDS011;61495;53.400;7.608;2023-04-21T13:44:45;9.95;;;5.82;;
73266;SDS011;61495;53.400;7.608;2023-04-21T13:47:11;9.82;;;5.63;;
73266;SDS011;61495;53.400;7.608;2023-04-21T13:49:36;9.77;;;6.70;;
73266;SDS011;61495;53.400;7.608;2023-04-21T13:52:02;9.27;;;5.50;;
73266;SDS011;61495;53.400;7.608;2023-04-21T13:54:27;8.25;;;5.93;;
73266;SDS011;61495;53.400;7.608;2023-04-21T13:56:52;8.10;;;5.50;;
73266;SDS011;61495;53.400;7.608;2023-04-21T13:59:18;9.77;;;5.63;;
73266;SDS011;61495;53.400;7.608;2023-04-21T14:01:45;8.70;;;5.88;;
73266;SDS011;61495;53.400;7.608;2023-04-21T14:04:10;13.15;;;6.30;;
73266;SDS011;61495;53.400;7.608;2023-04-21T14:06:35;8.38;;;5.50;;
73266;SDS011;61495;53.400;7.608;2023-04-21T14:09:01;7.68;;;4.97;;
73266;SDS011;61495;53.400;7.608;2023-04-21T14:11:26;7.10;;;5.35;;
73266;SDS011;61495;53.400;7.608;2023-04-21T14:13:51;7.50;;;4.90;;
73266;SDS011;61495;53.400;7.608;2023-04-21T14:16:18;8.15;;;5.60;;
73266;SDS011;61495;53.400;7.608;2023-04-21T14:18:43;9.10;;;5.05;;
73266;SDS011;61495;53.400;7.608;2023-04-21T14:21:12;9.27;;;5.55;;
73266;SDS011;61495;53.400;7.608;2023-04-21T14:23:44;10.02;;;5.32;;
73266;SDS011;61495;53.400;7.608;2023-04-21T14:26:09;8.05;;;5.38;;
73266;SDS011;61495;53.400;7.608;2023-04-21T14:28:35;9.98;;;5.40;;
73266;SDS011;61495;53.400;7.608;2023-04-21T14:31:01;8.07;;;5.65;;
73266;SDS011;61495;53.400;7.608;2023-04-21T14:33:28;8.25;;;5.18;;
73266;SDS011;61495;53.400;7.608;2023-04-21T14:35:53;7.97;;;5.90;;
73266;SDS011;61495;53.400;7.608;2023-04-21T14:38:19;7.32;;;5.43;;
73266;SDS011;61495;53.400;7.608;2023-04-21T14:40:44;7.85;;;4.22;;
73266;SDS011;61495;53.400;7.608;2023-04-21T14:43:09;7.68;;;5.65;;
73266;SDS011;61495;53.400;7.608;2023-04-21T14:45:35;8.57;;;5.50;;
73266;SDS011;61495;53.400;7.608;2023-04-21T14:48:01;8.05;;;5.38;;
73266;SDS011;61495;53.400;7.608;2023-04-21T14:50:26;9.45;;;5.50;;
73266;SDS011;61495;53.400;7.608;2023-04-21T14:52:52;8.52;;;4.60;;
73266;SDS011;61495;53.400;7.608;2023-04-21T14:55:17;7.10;;;5.07;;